createdAt,value
2018-07-26T00:00:34.716Z,25.80
2018-07-26T00:03:10.277Z,25.80
2018-07-26T00:05:45.791Z,25.80
2018-07-26T00:08:21.677Z,25.70
2018-07-26T00:10:57.283Z,25.70
2018-07-26T00:13:32.767Z,25.70
2018-07-26T00:16:08.604Z,25.70
2018-07-26T00:18:44.793Z,25.70
2018-07-26T00:21:20.163Z,25.70
2018-07-26T00:23:55.591Z,25.80
2018-07-26T00:26:31.358Z,25.70
2018-07-26T00:29:06.749Z,25.60
2018-07-26T00:31:42.180Z,25.60
2018-07-26T00:34:17.953Z,25.50
2018-07-26T00:36:53.212Z,25.30
2018-07-26T00:39:28.641Z,25.20
2018-07-26T00:42:04.437Z,25.20
2018-07-26T00:44:40.442Z,25.10
2018-07-26T00:47:16.629Z,25.10
2018-07-26T00:49:52.191Z,25.10
2018-07-26T00:52:27.188Z,25.00
2018-07-26T00:55:02.178Z,25.00
2018-07-26T00:57:37.686Z,25.00
2018-07-26T01:00:13.452Z,25.00
2018-07-26T01:02:48.790Z,25.00
2018-07-26T01:05:23.796Z,25.00
2018-07-26T01:07:58.664Z,25.00
2018-07-26T01:10:33.367Z,25.00
2018-07-26T01:13:08.429Z,24.90
2018-07-26T01:15:43.381Z,24.90
2018-07-26T01:18:18.979Z,24.90
2018-07-26T01:20:56.965Z,24.90
2018-07-26T01:23:32.133Z,24.80
2018-07-26T01:26:07.607Z,24.80
2018-07-26T01:28:42.480Z,24.80
2018-07-26T01:33:52.990Z,24.80
2018-07-26T01:36:28.377Z,24.80
2018-07-26T01:39:03.826Z,24.80
2018-07-26T01:41:39.323Z,24.70
2018-07-26T01:44:17.293Z,24.70
2018-07-26T01:46:52.371Z,24.70
2018-07-26T01:49:27.093Z,24.70
2018-07-26T01:52:01.899Z,24.70
2018-07-26T01:54:37.207Z,24.70
2018-07-26T01:57:11.915Z,24.70
2018-07-26T01:59:46.818Z,24.60
2018-07-26T02:02:22.061Z,24.60
2018-07-26T02:04:57.161Z,24.60
2018-07-26T02:07:32.141Z,24.60
2018-07-26T02:10:07.223Z,24.60
2018-07-26T02:15:17.227Z,24.60
2018-07-26T02:17:52.255Z,24.60
2018-07-26T02:20:27.572Z,24.60
2018-07-26T02:23:03.025Z,24.60
2018-07-26T02:25:37.947Z,24.50
2018-07-26T02:28:13.250Z,24.60
2018-07-26T02:30:47.962Z,24.60
2018-07-26T02:33:22.737Z,24.50
2018-07-26T02:35:57.783Z,24.50
2018-07-26T02:38:39.371Z,24.50
2018-07-26T02:41:14.100Z,24.40
2018-07-26T02:43:49.251Z,24.50
2018-07-26T02:46:24.360Z,24.50
2018-07-26T02:48:59.515Z,24.50
2018-07-26T02:51:34.356Z,24.50
2018-07-26T02:54:09.526Z,24.50
2018-07-26T02:56:44.661Z,24.50
2018-07-26T02:59:20.183Z,24.50
2018-07-26T03:01:55.134Z,24.30
2018-07-26T03:04:30.169Z,24.30
2018-07-26T03:07:05.450Z,24.20
2018-07-26T03:09:41.033Z,24.20
2018-07-26T03:12:15.825Z,24.20
2018-07-26T03:14:50.858Z,24.20
2018-07-26T03:17:25.839Z,24.20
2018-07-26T03:20:01.134Z,24.20
2018-07-26T03:22:36.106Z,24.20
2018-07-26T03:25:11.888Z,24.20
2018-07-26T03:27:46.901Z,24.10
2018-07-26T03:30:22.294Z,24.00
2018-07-26T03:32:57.249Z,24.00
2018-07-26T03:35:32.168Z,23.90
2018-07-26T03:38:07.179Z,23.90
2018-07-26T03:40:41.986Z,23.80
2018-07-26T03:43:16.962Z,23.80
2018-07-26T03:45:51.966Z,23.70
2018-07-26T03:48:27.010Z,23.70
2018-07-26T03:51:02.111Z,23.70
2018-07-26T03:53:37.251Z,23.70
2018-07-26T03:56:12.286Z,23.70
2018-07-26T03:58:47.444Z,23.60
2018-07-26T04:01:22.670Z,23.70
2018-07-26T04:03:57.589Z,23.70
2018-07-26T04:06:32.667Z,23.60
2018-07-26T04:09:10.813Z,23.70
2018-07-26T04:11:46.418Z,23.70
2018-07-26T04:14:21.480Z,23.60
2018-07-26T04:16:56.782Z,23.70
2018-07-26T04:19:31.652Z,23.70
2018-07-26T04:22:06.715Z,23.70
2018-07-26T04:24:41.702Z,23.70
2018-07-26T04:27:16.819Z,23.70
2018-07-26T04:29:51.751Z,23.70
2018-07-26T04:32:27.129Z,23.70
2018-07-26T04:35:02.065Z,23.80
2018-07-26T04:37:36.958Z,23.80
2018-07-26T04:40:12.200Z,23.80
2018-07-26T04:42:47.849Z,23.90
2018-07-26T04:45:22.846Z,24.00
2018-07-26T04:47:57.954Z,24.10
2018-07-26T04:50:32.657Z,24.00
2018-07-26T04:53:07.827Z,24.00
2018-07-26T04:55:42.693Z,24.10
2018-07-26T04:58:17.865Z,24.10
2018-07-26T05:00:53.620Z,24.20
2018-07-26T05:03:28.806Z,24.20
2018-07-26T05:06:03.813Z,24.20
2018-07-26T05:08:38.862Z,24.30
2018-07-26T05:11:14.141Z,24.30
2018-07-26T05:13:49.261Z,24.30
2018-07-26T05:16:24.123Z,24.40
2018-07-26T05:18:59.515Z,24.50
2018-07-26T05:21:34.758Z,24.50
2018-07-26T05:24:10.265Z,24.60
2018-07-26T05:26:45.391Z,24.60
2018-07-26T05:29:20.817Z,24.70
2018-07-26T05:31:56.166Z,24.70
2018-07-26T05:34:31.168Z,24.80
2018-07-26T05:37:06.190Z,24.80
2018-07-26T05:39:41.490Z,24.80
2018-07-26T05:42:16.613Z,24.90
2018-07-26T05:44:51.885Z,24.90
2018-07-26T05:47:26.890Z,25.00
2018-07-26T05:50:02.008Z,25.00
2018-07-26T05:52:37.371Z,25.00
2018-07-26T05:55:13.049Z,25.00
2018-07-26T05:57:48.306Z,25.00
2018-07-26T06:00:23.463Z,25.00
2018-07-26T06:02:58.426Z,25.10
2018-07-26T06:05:33.589Z,25.10
2018-07-26T06:08:08.642Z,25.20
2018-07-26T06:10:43.796Z,25.20
2018-07-26T06:13:19.135Z,25.30
2018-07-26T06:15:58.442Z,25.40
2018-07-26T06:18:33.767Z,25.50
2018-07-26T06:21:08.696Z,25.60
2018-07-26T06:23:43.668Z,25.70
2018-07-26T06:26:18.985Z,25.80
2018-07-26T06:28:53.852Z,25.90
2018-07-26T06:31:29.134Z,26.00
2018-07-26T06:34:04.497Z,26.10
2018-07-26T06:36:39.563Z,26.20
2018-07-26T06:39:14.827Z,26.30
2018-07-26T06:41:49.790Z,26.40
2018-07-26T06:44:24.868Z,26.40
2018-07-26T06:47:00.225Z,26.50
2018-07-26T06:49:35.440Z,26.60
2018-07-26T06:52:11.077Z,26.60
2018-07-26T06:54:46.286Z,26.70
2018-07-26T06:57:21.102Z,26.80
2018-07-26T06:59:56.131Z,26.80
2018-07-26T07:02:31.552Z,26.90
2018-07-26T07:05:06.540Z,27.00
2018-07-26T07:07:41.355Z,27.00
2018-07-26T07:10:16.436Z,27.10
2018-07-26T07:15:26.710Z,27.20
2018-07-26T07:18:02.235Z,27.20
2018-07-26T07:20:39.025Z,27.20
2018-07-26T07:23:13.870Z,27.20
2018-07-26T07:25:49.173Z,27.20
2018-07-26T07:28:27.396Z,27.30
2018-07-26T07:31:02.492Z,27.30
2018-07-26T07:33:39.325Z,27.30
2018-07-26T07:36:15.136Z,27.20
2018-07-26T07:38:50.229Z,27.20
2018-07-26T07:41:25.377Z,27.20
2018-07-26T07:44:00.369Z,27.30
2018-07-26T07:46:35.806Z,27.30
2018-07-26T07:49:11.882Z,27.40
2018-07-26T07:51:46.882Z,27.40
2018-07-26T07:54:21.953Z,27.50
2018-07-26T07:56:57.165Z,27.50
2018-07-26T07:59:32.282Z,27.50
2018-07-26T08:04:42.993Z,27.60
2018-07-26T08:07:17.933Z,27.60
2018-07-26T08:09:52.948Z,27.70
2018-07-26T08:12:33.839Z,27.70
2018-07-26T08:15:10.522Z,27.70
2018-07-26T08:17:45.983Z,27.80
2018-07-26T08:20:21.111Z,27.80
2018-07-26T08:22:56.434Z,28.00
2018-07-26T08:25:31.771Z,28.00
2018-07-26T08:28:06.760Z,28.10
2018-07-26T08:30:41.833Z,28.10
2018-07-26T08:33:16.926Z,28.10
2018-07-26T08:35:51.782Z,28.10
2018-07-26T08:38:26.698Z,28.10
2018-07-26T08:41:01.575Z,28.10
2018-07-26T08:43:36.818Z,28.20
2018-07-26T08:46:11.755Z,28.30
2018-07-26T08:48:46.796Z,28.40
2018-07-26T08:51:21.836Z,28.50
2018-07-26T08:53:56.820Z,28.60
2018-07-26T08:56:32.022Z,28.60
2018-07-26T08:59:06.940Z,28.70
2018-07-26T09:01:42.196Z,28.80
2018-07-26T09:04:17.154Z,28.70
2018-07-26T09:06:52.135Z,28.70
2018-07-26T09:09:27.155Z,28.70
2018-07-26T09:12:02.200Z,28.80
2018-07-26T09:14:37.130Z,29.00
2018-07-26T09:17:13.546Z,29.10
2018-07-26T09:19:48.945Z,29.20
2018-07-26T09:22:24.190Z,29.40
2018-07-26T09:24:58.931Z,29.40
2018-07-26T09:27:38.975Z,29.40
2018-07-26T09:32:48.613Z,29.60
2018-07-26T09:35:24.001Z,29.50
2018-07-26T09:37:59.802Z,29.60
2018-07-26T09:40:34.918Z,29.80
2018-07-26T09:43:09.837Z,29.80
2018-07-26T09:45:44.920Z,29.90
2018-07-26T09:48:20.571Z,30.00
2018-07-26T09:50:55.917Z,30.00
2018-07-26T09:53:31.301Z,30.00
2018-07-26T09:56:06.451Z,30.20
2018-07-26T09:58:41.497Z,30.40
2018-07-26T10:01:22.059Z,30.50
2018-07-26T10:03:57.634Z,30.60
2018-07-26T10:06:32.729Z,30.60
2018-07-26T10:09:09.746Z,30.80
2018-07-26T10:11:44.783Z,30.80
2018-07-26T10:14:19.716Z,30.70
2018-07-26T10:16:54.843Z,30.70
2018-07-26T10:19:30.405Z,30.70
2018-07-26T10:22:05.413Z,30.90
2018-07-26T10:24:40.760Z,30.90
2018-07-26T10:27:16.103Z,31.00
2018-07-26T10:29:51.294Z,31.00
2018-07-26T10:32:26.248Z,31.10
2018-07-26T10:35:01.422Z,31.10
2018-07-26T10:37:36.279Z,31.20
2018-07-26T10:40:11.446Z,31.20
2018-07-26T10:42:47.044Z,31.30
2018-07-26T10:45:22.105Z,31.50
2018-07-26T10:47:57.206Z,31.50
2018-07-26T10:50:32.134Z,31.50
2018-07-26T10:53:07.397Z,31.70
2018-07-26T10:55:42.776Z,31.70
2018-07-26T10:58:19.118Z,31.80
2018-07-26T11:00:54.017Z,32.00
2018-07-26T11:03:30.137Z,32.20
2018-07-26T11:06:05.303Z,32.20
2018-07-26T11:08:40.553Z,32.20
2018-07-26T11:11:16.477Z,32.30
2018-07-26T11:13:52.158Z,32.40
2018-07-26T11:16:27.899Z,32.60
2018-07-26T11:19:03.400Z,32.70
2018-07-26T11:24:14.386Z,32.70
2018-07-26T11:29:24.958Z,32.80
2018-07-26T11:32:00.674Z,33.00
2018-07-26T11:34:36.762Z,33.10
2018-07-26T11:37:12.523Z,33.10
2018-07-26T11:39:53.087Z,33.00
2018-07-26T11:42:28.710Z,33.10
2018-07-26T11:45:05.439Z,33.30
2018-07-26T11:47:41.229Z,33.40
2018-07-26T11:50:17.046Z,33.50
2018-07-26T11:52:52.450Z,33.40
2018-07-26T11:55:28.287Z,33.50
2018-07-26T11:58:03.453Z,33.60
2018-07-26T12:00:38.862Z,34.10
2018-07-26T12:03:14.862Z,34.00
2018-07-26T12:05:50.495Z,34.10
2018-07-26T12:08:25.979Z,34.00
2018-07-26T12:11:01.553Z,34.10
2018-07-26T12:13:37.930Z,34.20
2018-07-26T12:16:13.369Z,34.20
2018-07-26T12:18:49.051Z,34.10
2018-07-26T12:21:25.244Z,34.20
2018-07-26T12:24:00.622Z,34.50
2018-07-26T12:26:36.379Z,34.50
2018-07-26T12:29:11.929Z,34.40
2018-07-26T12:31:47.354Z,34.60
2018-07-26T12:36:58.862Z,34.80
2018-07-26T12:39:35.936Z,34.90
2018-07-26T12:42:11.979Z,35.00
2018-07-26T12:44:47.583Z,35.10
2018-07-26T12:47:23.316Z,35.20
2018-07-26T12:49:58.624Z,35.10
2018-07-26T12:52:34.108Z,34.90
2018-07-26T12:55:09.619Z,35.00
2018-07-26T12:57:44.506Z,34.90
2018-07-26T13:00:20.002Z,35.20
2018-07-26T13:02:56.446Z,35.40
2018-07-26T13:05:32.399Z,35.50
2018-07-26T13:08:07.476Z,35.60
2018-07-26T13:10:42.425Z,35.70
2018-07-26T13:13:17.512Z,35.80
2018-07-26T13:15:52.508Z,36.20
2018-07-26T13:18:27.428Z,36.10
2018-07-26T13:21:02.427Z,36.00
2018-07-26T13:23:37.917Z,36.00
2018-07-26T13:28:48.005Z,35.80
2018-07-26T13:31:23.156Z,35.70
2018-07-26T13:36:34.139Z,35.50
2018-07-26T13:39:11.775Z,35.30
2018-07-26T13:41:46.995Z,35.30
2018-07-26T13:44:22.724Z,35.40
2018-07-26T13:46:58.114Z,35.30
2018-07-26T13:49:32.997Z,35.10
2018-07-26T13:52:09.048Z,35.00
2018-07-26T13:54:44.364Z,35.00
2018-07-26T13:57:19.552Z,35.00
2018-07-26T13:59:55.004Z,35.00
2018-07-26T14:02:30.130Z,35.20
2018-07-26T14:05:05.620Z,35.40
2018-07-26T14:07:40.526Z,35.80
2018-07-26T14:10:15.569Z,35.90
2018-07-26T14:12:50.582Z,35.90
2018-07-26T14:15:25.569Z,36.00
2018-07-26T14:18:01.211Z,36.30
2018-07-26T14:20:36.716Z,36.60
2018-07-26T14:23:16.284Z,36.80
2018-07-26T14:25:51.618Z,36.80
2018-07-26T14:28:26.935Z,36.80
2018-07-26T14:31:01.865Z,36.60
2018-07-26T14:33:37.102Z,36.20
2018-07-26T14:36:12.166Z,35.90
2018-07-26T14:38:47.773Z,35.70
2018-07-26T14:41:22.830Z,35.50
2018-07-26T14:43:58.667Z,35.30
2018-07-26T14:46:34.489Z,35.20
2018-07-26T14:49:09.990Z,35.00
2018-07-26T14:51:46.330Z,34.80
2018-07-26T14:54:22.158Z,34.70
2018-07-26T14:56:57.803Z,34.50
2018-07-26T14:59:33.347Z,34.50
2018-07-26T15:02:09.476Z,34.40
2018-07-26T15:04:45.061Z,34.30
2018-07-26T15:07:20.411Z,34.20
2018-07-26T15:10:01.881Z,34.20
2018-07-26T15:12:37.746Z,34.10
2018-07-26T15:15:14.016Z,34.10
2018-07-26T15:17:49.278Z,34.00
2018-07-26T15:20:25.284Z,33.90
2018-07-26T15:23:00.982Z,33.90
2018-07-26T15:25:36.897Z,33.90
2018-07-26T15:28:13.099Z,33.70
2018-07-26T15:30:48.887Z,33.70
2018-07-26T15:33:30.257Z,33.60
2018-07-26T15:36:06.636Z,33.70
2018-07-26T15:38:42.556Z,33.70
2018-07-26T15:41:18.386Z,33.80
2018-07-26T15:43:53.861Z,33.90
2018-07-26T15:46:29.302Z,34.30
2018-07-26T15:49:04.956Z,34.50
2018-07-26T15:51:39.782Z,35.10
2018-07-26T15:54:14.952Z,35.50
2018-07-26T15:56:50.783Z,35.70
2018-07-26T15:59:25.581Z,35.90
2018-07-26T16:02:00.503Z,35.90
2018-07-26T16:04:35.574Z,35.90
2018-07-26T16:07:10.922Z,35.90
2018-07-26T16:09:47.267Z,35.80
2018-07-26T16:12:22.362Z,35.90
2018-07-26T16:14:57.757Z,36.10
2018-07-26T16:17:33.449Z,36.00
2018-07-26T16:20:10.943Z,35.70
2018-07-26T16:22:45.766Z,35.40
2018-07-26T16:25:23.410Z,35.10
2018-07-26T16:27:58.787Z,35.00
2018-07-26T16:30:34.551Z,34.80
2018-07-26T16:33:09.689Z,34.70
2018-07-26T16:35:45.298Z,34.60
2018-07-26T16:38:20.972Z,34.50
2018-07-26T16:40:56.983Z,34.50
2018-07-26T16:43:32.316Z,34.30
2018-07-26T16:46:08.373Z,34.20
2018-07-26T16:51:19.136Z,34.00
2018-07-26T16:53:55.002Z,34.00
2018-07-26T16:56:30.793Z,33.90
2018-07-26T16:59:06.683Z,33.90
2018-07-26T17:01:42.362Z,33.70
2018-07-26T17:04:18.165Z,33.70
2018-07-26T17:06:52.972Z,33.60
2018-07-26T17:09:28.928Z,33.60
2018-07-26T17:12:05.236Z,33.50
2018-07-26T17:14:41.550Z,33.50
2018-07-26T17:17:17.728Z,33.30
2018-07-26T17:19:53.866Z,33.30
2018-07-26T17:25:05.530Z,33.30
2018-07-26T17:27:41.243Z,33.20
2018-07-26T17:30:42.513Z,33.20
2018-07-26T17:33:18.817Z,33.10
2018-07-26T17:36:05.720Z,33.10
2018-07-26T17:41:22.723Z,33.00
2018-07-26T17:44:04.933Z,33.00
2018-07-26T17:46:40.635Z,33.00
2018-07-26T17:49:17.016Z,32.80
2018-07-26T17:52:01.698Z,32.70
2018-07-26T17:54:38.799Z,32.70
2018-07-26T17:57:14.431Z,32.70
2018-07-26T17:59:55.190Z,32.60
2018-07-26T18:02:31.488Z,32.50
2018-07-26T18:05:08.243Z,32.40
2018-07-26T18:07:45.457Z,32.30
2018-07-26T18:10:21.367Z,32.20
2018-07-26T18:12:56.782Z,32.20
2018-07-26T18:15:33.220Z,32.10
2018-07-26T18:18:09.939Z,32.00
2018-07-26T18:20:44.705Z,32.00
2018-07-26T18:23:20.732Z,32.00
2018-07-26T18:25:56.538Z,31.90
2018-07-26T18:28:32.585Z,31.80
2018-07-26T18:31:08.697Z,31.80
2018-07-26T18:33:45.073Z,31.70
2018-07-26T18:36:21.341Z,31.60
2018-07-26T18:39:02.015Z,31.70
2018-07-26T18:41:37.234Z,31.70
2018-07-26T18:44:13.157Z,31.60
2018-07-26T18:46:49.369Z,31.50
2018-07-26T18:49:29.168Z,31.40
2018-07-26T18:52:06.026Z,31.40
2018-07-26T18:54:41.887Z,31.40
2018-07-26T18:57:17.532Z,31.40
2018-07-26T18:59:53.618Z,31.40
2018-07-26T19:02:29.188Z,31.30
2018-07-26T19:05:14.080Z,31.30
2018-07-26T19:07:49.614Z,31.30
2018-07-26T19:10:25.242Z,31.10
2018-07-26T19:13:01.933Z,31.10
2018-07-26T19:15:37.229Z,31.10
2018-07-26T19:18:14.453Z,31.00
2018-07-26T19:20:49.969Z,31.00
2018-07-26T19:23:27.140Z,31.00
2018-07-26T19:26:06.373Z,30.90
2018-07-26T19:28:44.860Z,30.90
2018-07-26T19:31:20.006Z,30.80
2018-07-26T19:34:02.381Z,30.70
2018-07-26T19:36:39.365Z,30.70
2018-07-26T19:39:15.944Z,30.70
2018-07-26T19:41:53.703Z,30.60
2018-07-26T19:44:30.486Z,30.60
2018-07-26T19:47:05.607Z,30.60
2018-07-26T19:49:40.450Z,30.60
2018-07-26T19:52:18.889Z,30.50
2018-07-26T19:54:59.249Z,30.50
2018-07-26T19:57:34.236Z,30.50
2018-07-26T20:00:10.367Z,30.50
2018-07-26T20:02:46.208Z,30.50
2018-07-26T20:05:25.999Z,30.40
2018-07-26T20:08:00.987Z,30.40
2018-07-26T20:10:35.956Z,30.30
2018-07-26T20:13:11.010Z,30.30
2018-07-26T20:15:46.324Z,30.30
2018-07-26T20:18:21.900Z,30.20
2018-07-26T20:23:32.167Z,30.10
2018-07-26T20:26:07.364Z,30.10
2018-07-26T20:28:42.274Z,30.00
2018-07-26T20:31:17.867Z,29.90
2018-07-26T20:33:53.658Z,29.90
2018-07-26T20:36:29.082Z,29.80
2018-07-26T20:39:05.585Z,29.80
2018-07-26T20:41:41.043Z,29.80
2018-07-26T20:44:16.060Z,29.70
2018-07-26T20:46:51.103Z,29.60
2018-07-26T20:49:26.265Z,29.60
2018-07-26T20:52:01.459Z,29.60
2018-07-26T20:54:36.972Z,29.50
2018-07-26T20:57:11.800Z,29.50
2018-07-26T20:59:46.992Z,29.40
2018-07-26T21:02:22.543Z,29.40
2018-07-26T21:04:58.084Z,29.40
2018-07-26T21:07:33.107Z,29.30
2018-07-26T21:10:09.103Z,29.30
2018-07-26T21:12:43.950Z,29.20
2018-07-26T21:15:18.991Z,29.20
2018-07-26T21:17:54.227Z,29.10
2018-07-26T21:20:29.280Z,29.10
2018-07-26T21:25:39.272Z,29.10
2018-07-26T21:28:14.982Z,29.10
2018-07-26T21:30:50.191Z,29.00
2018-07-26T21:33:25.491Z,29.00
2018-07-26T21:36:01.011Z,29.00
2018-07-26T21:38:36.211Z,29.00
2018-07-26T21:41:11.471Z,29.00
2018-07-26T21:43:47.120Z,28.90
2018-07-26T21:46:21.794Z,29.00
2018-07-26T21:48:56.917Z,29.00
2018-07-26T21:51:31.831Z,29.00
2018-07-26T21:54:06.885Z,29.00
2018-07-26T21:56:42.258Z,29.00
2018-07-26T21:59:17.206Z,29.00
2018-07-26T22:01:52.714Z,29.00
2018-07-26T22:04:28.490Z,29.00
2018-07-26T22:07:03.900Z,29.00
2018-07-26T22:09:38.965Z,29.00
2018-07-26T22:12:14.163Z,29.00
2018-07-26T22:14:50.038Z,28.90
2018-07-26T22:17:25.148Z,29.00
2018-07-26T22:20:00.182Z,28.90
2018-07-26T22:22:35.461Z,28.90
2018-07-26T22:25:10.631Z,28.90
2018-07-26T22:27:45.456Z,28.90
2018-07-26T22:30:20.635Z,28.90
2018-07-26T22:32:55.452Z,28.80
2018-07-26T22:35:30.406Z,28.80
2018-07-26T22:38:05.431Z,28.80
2018-07-26T22:40:40.759Z,28.70
2018-07-26T22:43:15.569Z,28.60
2018-07-26T22:45:50.977Z,28.60
2018-07-26T22:48:25.737Z,28.60
2018-07-26T22:51:00.620Z,28.50
2018-07-26T22:53:35.806Z,28.50
2018-07-26T22:56:11.093Z,28.50
2018-07-26T22:58:46.218Z,28.40
2018-07-26T23:01:21.332Z,28.40
2018-07-26T23:03:56.169Z,28.30
2018-07-26T23:11:42.504Z,28.30
2018-07-26T23:14:17.603Z,28.30
2018-07-26T23:16:52.736Z,28.30
2018-07-26T23:19:28.014Z,28.30
2018-07-26T23:22:03.345Z,28.30
2018-07-26T23:24:38.526Z,28.30
2018-07-26T23:27:14.210Z,28.20
2018-07-26T23:29:49.478Z,28.30
2018-07-26T23:32:24.426Z,28.30
2018-07-26T23:34:59.672Z,28.20
2018-07-26T23:37:34.678Z,28.20
2018-07-26T23:40:11.197Z,28.20
2018-07-26T23:45:20.497Z,28.10
2018-07-26T23:47:55.897Z,28.10
2018-07-26T23:50:30.788Z,28.00
2018-07-26T23:53:06.410Z,28.00
2018-07-26T23:55:41.257Z,28.00
2018-07-26T23:58:16.593Z,28.00
